createdAt,value
2023-09-11T00:01:04.750Z,57.40
2023-09-11T00:03:35.397Z,57.30
2023-09-11T00:06:08.192Z,57.40
2023-09-11T00:08:37.235Z,57.50
2023-09-11T00:11:06.160Z,57.40
2023-09-11T00:13:34.985Z,57.40
2023-09-11T00:16:03.433Z,57.40
2023-09-11T00:18:31.840Z,57.40
2023-09-11T00:21:01.636Z,57.40
2023-09-11T00:23:30.138Z,57.40
2023-09-11T00:25:58.645Z,57.50
2023-09-11T00:28:27.136Z,57.50
2023-09-11T00:31:01.224Z,57.50
2023-09-11T00:33:29.905Z,57.60
2023-09-11T00:35:58.437Z,57.50
2023-09-11T00:38:28.575Z,57.50
2023-09-11T00:40:57.069Z,57.60
2023-09-11T00:43:25.427Z,57.50
2023-09-11T00:45:53.852Z,57.60
2023-09-11T00:48:22.558Z,57.60
2023-09-11T00:50:51.746Z,57.70
2023-09-11T00:53:21.630Z,57.70
2023-09-11T00:55:51.432Z,57.70
2023-09-11T00:58:20.206Z,57.60
2023-09-11T01:00:49.530Z,57.60
2023-09-11T01:03:18.744Z,57.60
2023-09-11T01:05:47.551Z,57.70
2023-09-11T01:08:16.088Z,57.70
2023-09-11T01:10:44.738Z,57.70
2023-09-11T01:13:14.930Z,57.70
2023-09-11T01:15:53.577Z,57.70
2023-09-11T01:18:30.371Z,57.70
2023-09-11T01:21:31.273Z,57.70
2023-09-11T01:24:46.276Z,57.70
2023-09-11T01:27:54.380Z,57.80
2023-09-11T01:30:24.652Z,57.80
2023-09-11T01:32:53.955Z,57.70
2023-09-11T01:35:22.846Z,57.70
2023-09-11T01:37:51.672Z,57.70
2023-09-11T01:40:22.259Z,57.70
2023-09-11T01:42:57.726Z,57.80
2023-09-11T01:45:28.758Z,57.90
2023-09-11T01:47:58.321Z,57.80
2023-09-11T01:50:27.881Z,57.80
2023-09-11T01:52:56.519Z,57.80
2023-09-11T01:55:25.073Z,57.90
2023-09-11T01:57:54.108Z,58.50
2023-09-11T02:00:22.656Z,57.90
2023-09-11T02:02:56.595Z,57.90
2023-09-11T02:05:25.254Z,58.00
2023-09-11T02:07:53.853Z,57.90
2023-09-11T02:10:22.225Z,57.80
2023-09-11T02:12:50.667Z,57.90
2023-09-11T02:15:19.038Z,57.90
2023-09-11T02:17:47.439Z,57.90
2023-09-11T02:20:17.495Z,58.00
2023-09-11T02:22:45.880Z,58.00
2023-09-11T02:25:14.290Z,58.00
2023-09-11T02:27:42.719Z,58.00
2023-09-11T02:30:11.877Z,57.90
2023-09-11T02:32:40.335Z,58.00
2023-09-11T02:35:10.006Z,58.00
2023-09-11T02:37:41.214Z,58.10
2023-09-11T02:40:12.930Z,58.10
2023-09-11T02:42:41.308Z,58.10
2023-09-11T02:45:11.140Z,58.10
2023-09-11T02:47:40.309Z,58.20
2023-09-11T02:50:10.148Z,58.10
2023-09-11T02:52:39.872Z,58.20
2023-09-11T02:55:12.441Z,58.20
2023-09-11T02:57:40.907Z,58.20
2023-09-11T03:00:11.535Z,58.20
2023-09-11T03:02:40.670Z,58.20
2023-09-11T03:05:10.145Z,58.10
2023-09-11T03:07:39.994Z,58.10
2023-09-11T03:10:09.084Z,58.10
2023-09-11T03:12:37.557Z,58.10
2023-09-11T03:15:08.712Z,58.10
2023-09-11T03:17:37.174Z,58.20
2023-09-11T03:20:08.506Z,58.20
2023-09-11T03:22:37.301Z,58.20
2023-09-11T03:25:07.988Z,58.30
2023-09-11T03:27:36.386Z,58.30
2023-09-11T03:30:05.665Z,58.20
2023-09-11T03:32:34.479Z,58.20
2023-09-11T03:35:03.516Z,58.20
2023-09-11T03:37:32.027Z,58.30
2023-09-11T03:40:00.400Z,58.30
2023-09-11T03:42:31.101Z,58.30
2023-09-11T03:44:59.504Z,58.30
2023-09-11T03:47:28.102Z,58.30
2023-09-11T03:49:56.585Z,58.90
2023-09-11T03:52:24.998Z,58.30
2023-09-11T03:54:53.383Z,58.30
2023-09-11T03:57:21.925Z,58.30
2023-09-11T03:59:51.836Z,58.30
2023-09-11T04:02:20.280Z,58.30
2023-09-11T04:04:48.644Z,58.30
2023-09-11T04:07:17.026Z,58.30
2023-09-11T04:09:45.483Z,58.30
2023-09-11T04:12:19.070Z,58.30
2023-09-11T04:14:48.083Z,58.40
2023-09-11T04:17:17.950Z,58.40
2023-09-11T04:19:46.719Z,58.40
2023-09-11T04:22:15.444Z,58.40
2023-09-11T04:24:43.820Z,58.40
2023-09-11T04:27:12.565Z,58.40
2023-09-11T04:29:41.870Z,58.40
2023-09-11T04:32:13.206Z,58.40
2023-09-11T04:34:43.363Z,58.40
2023-09-11T04:37:11.937Z,58.40
2023-09-11T04:39:40.617Z,58.40
2023-09-11T04:42:09.129Z,58.50
2023-09-11T04:44:39.071Z,58.50
2023-09-11T04:47:07.696Z,58.50
2023-09-11T04:49:36.837Z,58.40
2023-09-11T04:52:06.980Z,58.40
2023-09-11T04:54:35.410Z,58.50
2023-09-11T04:57:03.922Z,58.50
2023-09-11T04:59:32.392Z,58.50
2023-09-11T05:02:00.913Z,58.60
2023-09-11T05:04:29.357Z,58.60
2023-09-11T05:06:57.864Z,58.60
2023-09-11T05:09:27.919Z,58.60
2023-09-11T05:11:56.569Z,58.60
2023-09-11T05:14:25.125Z,58.60
2023-09-11T05:16:53.644Z,58.60
2023-09-11T05:19:23.378Z,58.60
2023-09-11T05:21:52.381Z,58.60
2023-09-11T05:24:20.792Z,58.70
2023-09-11T05:26:50.621Z,58.60
2023-09-11T05:29:19.241Z,58.70
2023-09-11T05:31:47.799Z,58.70
2023-09-11T05:34:16.479Z,58.70
2023-09-11T05:36:44.917Z,58.80
2023-09-11T05:39:13.358Z,58.80
2023-09-11T05:41:42.066Z,58.80
2023-09-11T05:44:12.105Z,58.90
2023-09-11T05:46:40.634Z,58.80
2023-09-11T05:49:09.205Z,58.90
2023-09-11T05:51:37.654Z,58.90
2023-09-11T05:54:06.566Z,58.90
2023-09-11T05:56:35.061Z,59.00
2023-09-11T05:59:04.103Z,59.00
2023-09-11T06:01:33.837Z,59.00
2023-09-11T06:04:02.622Z,59.10
2023-09-11T06:06:31.455Z,59.10
2023-09-11T06:09:01.005Z,59.10
2023-09-11T06:11:29.750Z,59.10
2023-09-11T06:13:58.701Z,59.10
2023-09-11T06:16:27.164Z,59.30
2023-09-11T06:18:57.299Z,59.20
2023-09-11T06:21:26.313Z,59.30
2023-09-11T06:23:55.152Z,59.10
2023-09-11T06:26:23.646Z,59.10
2023-09-11T06:28:52.446Z,59.10
2023-09-11T06:31:21.809Z,59.70
2023-09-11T06:33:51.503Z,59.20
2023-09-11T06:36:21.412Z,59.20
2023-09-11T06:38:49.844Z,59.40
2023-09-11T06:41:18.516Z,59.30
2023-09-11T06:43:47.245Z,59.30
2023-09-11T06:46:15.918Z,59.30
2023-09-11T06:48:44.748Z,59.20
2023-09-11T06:51:13.752Z,59.20
2023-09-11T06:53:43.659Z,59.30
2023-09-11T06:56:12.210Z,59.30
2023-09-11T06:58:43.559Z,59.10
2023-09-11T07:01:12.330Z,59.20
2023-09-11T07:03:40.889Z,59.00
2023-09-11T07:06:09.879Z,59.20
2023-09-11T07:08:38.479Z,59.10
2023-09-11T07:11:08.573Z,59.70
2023-09-11T07:13:36.937Z,59.10
2023-09-11T07:16:06.272Z,59.20
2023-09-11T07:18:34.785Z,59.20
2023-09-11T07:21:03.270Z,59.20
2023-09-11T07:23:31.975Z,59.30
2023-09-11T07:26:00.540Z,59.30
2023-09-11T07:28:30.415Z,59.30
2023-09-11T07:30:59.859Z,59.40
2023-09-11T07:33:29.572Z,59.40
2023-09-11T07:35:58.151Z,59.40
2023-09-11T07:38:26.751Z,59.30
2023-09-11T07:40:55.216Z,59.40
2023-09-11T07:43:24.472Z,59.40
2023-09-11T07:45:54.270Z,59.30
2023-09-11T07:48:22.776Z,59.40
2023-09-11T07:50:57.828Z,59.50
2023-09-11T07:53:26.511Z,59.50
2023-09-11T07:55:54.878Z,59.40
2023-09-11T07:58:23.796Z,59.50
2023-09-11T08:00:54.212Z,59.50
2023-09-11T08:03:24.048Z,59.50
2023-09-11T08:05:52.579Z,59.40
2023-09-11T08:08:21.029Z,59.50
2023-09-11T08:10:49.790Z,59.40
2023-09-11T08:13:18.224Z,59.40
2023-09-11T08:15:47.108Z,59.30
2023-09-11T08:18:17.013Z,59.40
2023-09-11T08:20:47.908Z,59.40
2023-09-11T08:23:16.564Z,59.30
2023-09-11T08:25:44.931Z,59.30
2023-09-11T08:28:13.434Z,59.30
2023-09-11T08:30:42.475Z,59.20
2023-09-11T08:33:11.236Z,59.20
2023-09-11T08:35:41.558Z,59.10
2023-09-11T08:38:09.978Z,59.00
2023-09-11T08:40:38.618Z,58.90
2023-09-11T08:43:07.372Z,59.00
2023-09-11T08:45:36.021Z,59.10
2023-09-11T08:48:10.767Z,59.10
2023-09-11T08:50:45.638Z,59.00
2023-09-11T08:53:19.166Z,59.00
2023-09-11T08:55:49.178Z,59.00
2023-09-11T08:58:22.351Z,58.70
2023-09-11T09:00:51.335Z,58.50
2023-09-11T09:03:22.006Z,58.40
2023-09-11T09:05:52.052Z,58.30
2023-09-11T09:08:22.380Z,58.20
2023-09-11T09:10:51.129Z,58.20
2023-09-11T09:13:19.520Z,58.10
2023-09-11T09:15:48.004Z,58.00
2023-09-11T09:18:16.482Z,57.70
2023-09-11T09:20:45.006Z,57.80
2023-09-11T09:23:15.406Z,57.50
2023-09-11T09:25:44.154Z,57.50
2023-09-11T09:28:31.076Z,57.60
2023-09-11T09:31:00.474Z,57.00
2023-09-11T09:33:29.877Z,57.20
2023-09-11T09:35:58.463Z,57.20
2023-09-11T09:38:29.216Z,57.00
2023-09-11T09:40:58.417Z,56.60
2023-09-11T09:43:26.814Z,56.60
2023-09-11T09:45:55.253Z,56.20
2023-09-11T09:48:23.789Z,56.10
2023-09-11T09:50:58.281Z,55.90
2023-09-11T09:53:32.178Z,55.90
2023-09-11T09:56:04.326Z,55.80
2023-09-11T09:58:37.290Z,55.70
2023-09-11T10:01:08.096Z,55.40
2023-09-11T10:03:42.932Z,55.30
2023-09-11T10:06:16.818Z,55.20
2023-09-11T10:08:47.843Z,55.20
2023-09-11T10:11:29.561Z,54.90
2023-09-11T10:14:00.207Z,54.60
2023-09-11T10:16:31.398Z,54.80
2023-09-11T10:19:01.572Z,54.80
2023-09-11T10:21:31.578Z,54.80
2023-09-11T10:24:01.418Z,54.80
2023-09-11T10:26:38.784Z,54.60
2023-09-11T10:29:13.189Z,54.60
2023-09-11T10:31:54.433Z,54.60
2023-09-11T10:34:25.006Z,54.60
2023-09-11T10:37:00.077Z,54.60
2023-09-11T10:39:30.857Z,54.40
2023-09-11T10:41:59.534Z,54.40
2023-09-11T10:44:30.093Z,54.40
2023-09-11T10:47:05.175Z,54.30
2023-09-11T10:49:39.348Z,54.00
2023-09-11T10:52:10.336Z,53.90
2023-09-11T10:54:42.221Z,54.60
2023-09-11T10:57:10.770Z,54.10
2023-09-11T10:59:39.317Z,54.10
2023-09-11T11:02:08.116Z,54.00
2023-09-11T11:04:37.374Z,53.80
2023-09-11T11:07:06.220Z,53.80
2023-09-11T11:09:37.288Z,53.90
2023-09-11T11:12:10.977Z,53.90
2023-09-11T11:14:39.664Z,53.60
2023-09-11T11:17:11.323Z,53.70
2023-09-11T11:19:41.711Z,53.40
2023-09-11T11:22:11.190Z,52.80
2023-09-11T11:24:55.677Z,52.70
2023-09-11T11:27:25.665Z,52.20
2023-09-11T11:29:55.284Z,52.60
2023-09-11T11:32:24.431Z,52.40
2023-09-11T11:34:53.041Z,52.50
2023-09-11T11:37:22.877Z,52.70
2023-09-11T11:39:52.205Z,52.50
2023-09-11T11:42:22.117Z,52.10
2023-09-11T11:44:52.821Z,52.00
2023-09-11T11:47:21.621Z,51.60
2023-09-11T11:49:51.088Z,51.70
2023-09-11T11:52:24.249Z,51.40
2023-09-11T11:54:52.710Z,51.40
2023-09-11T11:57:22.770Z,51.10
2023-09-11T11:59:53.208Z,51.00
2023-09-11T12:02:23.319Z,51.00
2023-09-11T12:04:55.976Z,51.00
2023-09-11T12:07:25.340Z,50.80
2023-09-11T12:09:53.851Z,50.50
2023-09-11T12:12:22.566Z,50.30
2023-09-11T12:14:57.800Z,50.30
2023-09-11T12:17:26.490Z,49.90
2023-09-11T12:20:15.080Z,50.00
2023-09-11T12:22:45.363Z,49.60
2023-09-11T12:25:14.438Z,49.90
2023-09-11T12:27:45.424Z,49.90
2023-09-11T12:30:16.672Z,50.00
2023-09-11T12:32:47.426Z,49.80
2023-09-11T12:35:15.905Z,49.90
2023-09-11T12:37:44.525Z,49.80
2023-09-11T12:40:13.470Z,49.70
2023-09-11T12:42:43.161Z,49.70
2023-09-11T12:45:12.350Z,49.90
2023-09-11T12:47:42.793Z,49.70
2023-09-11T12:50:11.862Z,49.60
2023-09-11T12:52:40.589Z,49.70
2023-09-11T12:55:09.375Z,50.00
2023-09-11T12:57:37.918Z,48.90
2023-09-11T13:00:07.722Z,48.90
2023-09-11T13:02:36.423Z,49.10
2023-09-11T13:05:09.981Z,49.00
2023-09-11T13:07:38.592Z,48.80
2023-09-11T13:10:08.666Z,48.70
2023-09-11T13:12:37.411Z,48.50
2023-09-11T13:15:08.599Z,48.60
2023-09-11T13:17:38.674Z,48.60
2023-09-11T13:20:10.544Z,48.50
2023-09-11T13:22:39.370Z,48.50
2023-09-11T13:25:08.645Z,48.50
2023-09-11T13:27:37.849Z,48.50
2023-09-11T13:30:08.621Z,48.50
2023-09-11T13:32:38.985Z,48.50
2023-09-11T13:35:10.673Z,48.50
2023-09-11T13:37:40.065Z,48.50
2023-09-11T13:40:09.398Z,48.40
2023-09-11T13:42:40.065Z,48.10
2023-09-11T13:45:11.309Z,47.90
2023-09-11T13:47:40.724Z,47.90
2023-09-11T13:50:11.902Z,47.90
2023-09-11T13:52:40.727Z,47.80
2023-09-11T13:55:10.292Z,47.80
2023-09-11T13:57:38.785Z,47.60
2023-09-11T14:00:09.005Z,47.60
2023-09-11T14:02:43.217Z,47.70
2023-09-11T14:05:13.400Z,47.80
2023-09-11T14:07:41.797Z,47.80
2023-09-11T14:10:11.245Z,47.80
2023-09-11T14:12:39.648Z,47.80
2023-09-11T14:15:10.025Z,47.80
2023-09-11T14:17:38.484Z,47.80
2023-09-11T14:20:11.770Z,47.90
2023-09-11T14:22:43.437Z,48.20
2023-09-11T14:25:12.381Z,47.70
2023-09-11T14:27:40.800Z,47.70
2023-09-11T14:30:11.439Z,47.70
2023-09-11T14:32:39.894Z,47.30
2023-09-11T14:35:09.726Z,47.20
2023-09-11T14:37:38.414Z,47.40
2023-09-11T14:40:11.656Z,47.50
2023-09-11T14:42:40.176Z,47.50
2023-09-11T14:45:10.264Z,47.70
2023-09-11T14:47:38.919Z,47.50
2023-09-11T14:50:10.888Z,47.60
2023-09-11T14:52:39.771Z,47.70
2023-09-11T14:55:10.775Z,47.80
2023-09-11T14:57:39.224Z,47.60
2023-09-11T15:00:09.662Z,47.50
2023-09-11T15:02:38.387Z,47.50
2023-09-11T15:05:07.707Z,47.60
2023-09-11T15:07:36.167Z,47.50
2023-09-11T15:10:05.377Z,47.60
2023-09-11T15:12:35.584Z,47.50
2023-09-11T15:15:04.453Z,47.50
2023-09-11T15:17:33.006Z,47.50
2023-09-11T15:20:01.574Z,47.30
2023-09-11T15:22:30.111Z,47.10
2023-09-11T15:24:59.729Z,46.90
2023-09-11T15:27:28.159Z,47.00
2023-09-11T15:29:58.630Z,47.20
2023-09-11T15:32:27.292Z,46.80
2023-09-11T15:34:55.808Z,47.00
2023-09-11T15:37:25.182Z,46.90
2023-09-11T15:39:53.582Z,47.30
2023-09-11T15:42:22.018Z,47.20
2023-09-11T15:44:51.523Z,47.00
2023-09-11T15:47:21.820Z,47.20
2023-09-11T15:49:50.520Z,47.30
2023-09-11T15:52:18.874Z,47.50
2023-09-11T15:54:47.299Z,47.60
2023-09-11T15:57:15.964Z,47.70
2023-09-11T15:59:44.826Z,47.80
2023-09-11T16:02:13.268Z,48.00
2023-09-11T16:04:43.409Z,48.10
2023-09-11T16:07:12.191Z,48.30
2023-09-11T16:09:40.851Z,48.30
2023-09-11T16:12:09.563Z,48.40
2023-09-11T16:14:38.201Z,48.60
2023-09-11T16:17:06.780Z,48.80
2023-09-11T16:19:35.311Z,49.00
2023-09-11T16:22:05.439Z,49.10
2023-09-11T16:24:33.848Z,49.20
2023-09-11T16:27:02.611Z,49.20
2023-09-11T16:29:31.011Z,49.20
2023-09-11T16:31:59.485Z,49.50
2023-09-11T16:34:28.015Z,49.40
2023-09-11T16:36:56.468Z,49.40
2023-09-11T16:39:26.251Z,49.30
2023-09-11T16:41:54.787Z,49.40
2023-09-11T16:44:23.654Z,49.40
2023-09-11T16:46:52.294Z,49.60
2023-09-11T16:49:24.514Z,49.70
2023-09-11T16:51:52.918Z,49.80
2023-09-11T16:54:21.372Z,49.70
2023-09-11T16:56:51.528Z,49.90
2023-09-11T16:59:20.123Z,50.00
2023-09-11T17:01:48.552Z,49.90
2023-09-11T17:04:16.965Z,50.00
2023-09-11T17:06:47.543Z,50.00
2023-09-11T17:09:16.993Z,50.30
2023-09-11T17:11:45.550Z,50.30
2023-09-11T17:14:15.635Z,50.20
2023-09-11T17:16:44.187Z,50.30
2023-09-11T17:19:12.822Z,50.30
2023-09-11T17:21:41.714Z,50.40
2023-09-11T17:24:10.809Z,50.40
2023-09-11T17:26:39.828Z,50.40
2023-09-11T17:29:08.214Z,50.40
2023-09-11T17:31:38.092Z,50.40
2023-09-11T17:34:06.659Z,50.50
2023-09-11T17:36:35.341Z,50.40
2023-09-11T17:39:04.334Z,50.50
2023-09-11T17:41:32.776Z,50.60
2023-09-11T17:44:01.382Z,50.60
2023-09-11T17:46:29.834Z,50.80
2023-09-11T17:48:59.705Z,50.80
2023-09-11T17:51:28.119Z,50.90
2023-09-11T17:53:56.869Z,50.80
2023-09-11T17:56:25.358Z,50.90
2023-09-11T17:58:53.885Z,51.00
2023-09-11T18:01:22.339Z,51.00
2023-09-11T18:03:57.423Z,51.10
2023-09-11T18:06:28.792Z,51.20
2023-09-11T18:08:58.885Z,51.30
2023-09-11T18:11:27.476Z,51.30
2023-09-11T18:13:55.934Z,51.40
2023-09-11T18:16:24.465Z,51.50
2023-09-11T18:18:53.129Z,51.50
2023-09-11T18:21:21.726Z,51.50
2023-09-11T18:23:51.558Z,51.60
2023-09-11T18:26:20.052Z,51.70
2023-09-11T18:28:48.520Z,51.70
2023-09-11T18:31:16.909Z,51.80
2023-09-11T18:33:46.591Z,51.80
2023-09-11T18:36:16.593Z,51.90
2023-09-11T18:38:45.143Z,51.90
2023-09-11T18:41:15.011Z,51.90
2023-09-11T18:43:43.468Z,52.00
2023-09-11T18:46:12.690Z,52.00
2023-09-11T18:48:42.931Z,52.00
2023-09-11T18:51:12.506Z,52.00
2023-09-11T18:53:41.015Z,52.00
2023-09-11T18:56:09.646Z,51.90
2023-09-11T18:58:39.773Z,52.00
2023-09-11T19:01:08.794Z,52.00
2023-09-11T19:03:37.493Z,52.00
2023-09-11T19:06:06.475Z,52.00
2023-09-11T19:08:35.242Z,52.00
2023-09-11T19:11:03.720Z,52.10
2023-09-11T19:13:32.606Z,52.00
2023-09-11T19:16:02.661Z,51.90
2023-09-11T19:18:37.916Z,52.00
2023-09-11T19:21:07.348Z,52.00
2023-09-11T19:23:36.499Z,52.10
2023-09-11T19:26:09.622Z,52.10
2023-09-11T19:28:40.237Z,52.10
2023-09-11T19:31:10.600Z,52.10
2023-09-11T19:33:39.326Z,52.10
2023-09-11T19:36:08.205Z,52.10
2023-09-11T19:38:36.730Z,52.20
2023-09-11T19:41:07.407Z,52.10
2023-09-11T19:43:36.184Z,52.10
2023-09-11T19:46:04.935Z,52.10
2023-09-11T19:48:36.617Z,52.10
2023-09-11T19:51:05.432Z,52.10
2023-09-11T19:53:33.868Z,52.10
2023-09-11T19:56:02.563Z,52.10
2023-09-11T19:58:31.132Z,52.20
2023-09-11T20:01:02.783Z,52.20
2023-09-11T20:03:31.311Z,52.40
2023-09-11T20:06:01.198Z,52.40
2023-09-11T20:08:29.726Z,52.50
2023-09-11T20:10:58.350Z,52.50
2023-09-11T20:13:30.153Z,52.50
2023-09-11T20:15:58.850Z,52.60
2023-09-11T20:18:27.228Z,53.20
2023-09-11T20:20:55.846Z,52.60
2023-09-11T20:23:25.825Z,53.20
2023-09-11T20:25:54.373Z,52.70
2023-09-11T20:28:22.936Z,52.70
2023-09-11T20:30:51.483Z,52.70
2023-09-11T20:33:20.015Z,52.70
2023-09-11T20:35:48.564Z,52.70
2023-09-11T20:38:21.393Z,52.80
2023-09-11T20:40:51.437Z,52.80
2023-09-11T20:43:19.811Z,52.80
2023-09-11T20:45:48.287Z,52.90
2023-09-11T20:48:16.734Z,52.90
2023-09-11T20:50:45.234Z,53.00
2023-09-11T20:53:13.778Z,53.00
2023-09-11T20:55:42.290Z,53.80
2023-09-11T20:58:12.564Z,53.30
2023-09-11T21:00:41.640Z,53.90
2023-09-11T21:03:10.143Z,53.50
2023-09-11T21:05:38.921Z,53.50
2023-09-11T21:08:07.534Z,53.50
2023-09-11T21:10:36.118Z,53.60
2023-09-11T21:13:05.124Z,53.50
2023-09-11T21:15:34.911Z,53.60
2023-09-11T21:18:03.536Z,53.50
2023-09-11T21:20:31.959Z,53.50
2023-09-11T21:23:02.424Z,53.50
2023-09-11T21:25:30.873Z,53.60
2023-09-11T21:28:00.156Z,53.50
2023-09-11T21:30:28.891Z,53.60
2023-09-11T21:32:58.749Z,53.70
2023-09-11T21:35:27.266Z,53.80
2023-09-11T21:37:55.748Z,53.90
2023-09-11T21:40:24.418Z,53.80
2023-09-11T21:42:52.776Z,54.00
2023-09-11T21:45:21.260Z,54.00
2023-09-11T21:47:49.714Z,54.70
2023-09-11T21:50:19.502Z,54.20
2023-09-11T21:52:48.046Z,54.40
2023-09-11T21:55:16.634Z,54.40
2023-09-11T21:57:45.006Z,54.50
2023-09-11T22:00:15.254Z,54.60
2023-09-11T22:02:43.914Z,54.80
2023-09-11T22:05:13.684Z,55.40
2023-09-11T22:07:43.866Z,54.90
2023-09-11T22:10:12.607Z,55.00
2023-09-11T22:12:41.170Z,55.20
2023-09-11T22:15:10.837Z,55.20
2023-09-11T22:17:39.436Z,55.30
2023-09-11T22:20:09.830Z,55.40
2023-09-11T22:22:38.449Z,55.50
2023-09-11T22:25:09.608Z,55.60
2023-09-11T22:27:38.105Z,55.70
2023-09-11T22:30:08.669Z,55.70
2023-09-11T22:32:53.182Z,55.70
2023-09-11T22:35:23.701Z,55.70
2023-09-11T22:37:52.669Z,55.70
2023-09-11T22:40:22.739Z,55.70
2023-09-11T22:42:51.137Z,55.80
2023-09-11T22:45:19.756Z,55.70
2023-09-11T22:53:02.534Z,56.00
2023-09-11T23:00:12.650Z,56.00
2023-09-11T23:02:41.744Z,55.90
2023-09-11T23:09:39.600Z,55.80
2023-09-11T23:12:08.910Z,55.50
2023-09-11T23:14:37.460Z,55.50
2023-09-11T23:17:07.988Z,55.40
2023-09-11T23:19:36.380Z,55.50
2023-09-11T23:22:05.157Z,55.50
2023-09-11T23:24:33.791Z,55.60
2023-09-11T23:27:02.671Z,55.50
2023-09-11T23:29:31.106Z,56.20
2023-09-11T23:31:59.568Z,55.60
2023-09-11T23:34:29.394Z,55.60
2023-09-11T23:36:57.879Z,55.70
2023-09-11T23:39:26.333Z,55.70
2023-09-11T23:41:54.733Z,55.70
2023-09-11T23:44:23.377Z,55.70
2023-09-11T23:46:51.778Z,55.80
2023-09-11T23:49:20.341Z,55.80
2023-09-11T23:51:50.166Z,55.80
2023-09-11T23:54:18.560Z,55.80
2023-09-11T23:56:46.990Z,55.80
2023-09-11T23:59:16.174Z,55.70
